Latest Weather Observations for Avalon

IDV60901

Issued at 8:41 pm EST Thursday 30 June 2022 (issued every 10 minutes, with the page automatically refreshed every 10 minutes)

About weather observations | Map of Melbourne area stations | Latest observations for Melbourne area | Other Formats
Station Details ID: 087113 Name: AVALON AIRPORT Lat: -38.03 Lon: 144.48 Height: 10.6 m
Data from the previous 72 hours. | See also: Recent months at Avalon
Date/Time
EST
Temp
°C
App
Temp
°C
Dew
Point
°C
Rel
Hum
%
Delta-T
°C
Wind Press
QNH
hPa
Press
MSL
hPa
Rain since
9am
mm
Dir  Spd
km/h
Gust
km/h
Spd
kts
Gust
kts
30/08:30pm 9.5 7.5 8.6 94 0.4 SSW 9 9 5 5 1027.6 1027.6 0.0
30/08:00pm 10.5 8.3 9.4 93 0.5 SSE 11 17 6 9 1027.4 1027.4 0.0
30/07:52pm 10.7 8.2 9.8 94 0.5 S 13 17 7 9 1027.3 1027.3 0.0
30/07:30pm 10.6 8.8 9.4 92 0.6 WSW 9 11 5 6 1027.2 1027.2 0.0
30/07:00pm 10.0 8.6 8.9 93 0.5 W 6 7 3 4 1026.9 1026.9 0.0
30/06:55pm 10.0 8.6 8.9 93 0.5 WSW 6 7 3 4 1026.8 1026.8 0.0
30/06:30pm 10.0 8.5 9.1 94 0.4 SW 7 9 4 5 1026.6 1026.6 0.0
30/06:00pm 9.7 7.2 8.1 90 0.8 S 11 13 6 7 1026.3 1026.3 0.0
30/05:30pm 9.6 7.5 6.5 81 1.4 SSE 7 9 4 5 1025.9 1025.9 0.0
30/05:00pm 9.6 7.4 6.1 79 1.6 SSE 7 9 4 5 1025.6 1025.6 0.0
30/04:30pm 10.3 8.1 6.1 75 1.9 SSE 7 9 4 5 1025.3 1025.3 0.0
30/04:00pm 12.7 10.0 7.4 70 2.6 SSE 11 15 6 8 1025.0 1025.0 0.0
30/03:30pm 13.6 10.6 6.2 61 3.5 SW 11 13 6 7 1024.9 1024.9 0.0
30/03:15pm 13.6 11.5 6.7 63 3.3 SW 7 11 4 6 1024.8 1024.8 0.0
30/03:00pm 14.0 13.2 6.6 61 3.5 CALM 0 0 0 0 1024.6 1024.6 0.0
30/02:55pm 14.3 13.5 6.4 59 3.8 CALM 0 6 0 3 1024.6 1024.6 0.0
30/02:30pm 12.3 11.0 7.8 74 2.2 SSE 4 7 2 4 1024.7 1024.7 0.0
30/02:00pm 13.3 11.4 7.7 69 2.7 ESE 7 11 4 6 1024.8 1024.8 0.0
30/01:30pm 12.6 9.9 7.3 70 2.6 ESE 11 15 6 8 1025.0 1025.0 0.0
30/01:00pm 12.9 11.3 6.3 64 3.1 SSW 4 9 2 5 1025.0 1025.0 0.0
30/12:30pm 12.3 10.1 6.1 66 2.9 WSW 7 11 4 6 1025.3 1025.3 0.0
30/12:00pm 12.9 10.8 5.8 62 3.3 WNW 6 11 3 6 1025.5 1025.5 0.0
30/11:30am 11.7 9.4 4.7 62 3.2 NNW 6 9 3 5 1025.7 1025.7 0.0
30/11:00am 11.7 8.9 5.1 64 3.0 WNW 9 11 5 6 1025.7 1025.7 0.0
30/10:30am 10.6 7.8 5.2 69 2.5 NNW 9 13 5 7 1025.7 1025.7 0.0
30/10:00am 9.0 6.6 5.2 77 1.7 NW 7 11 4 6 1025.6 1025.6 0.0
30/09:30am 7.8 5.2 5.9 88 0.9 NNW 9 13 5 7 1025.3 1025.3 0.0
30/09:00am 4.9 1.4 3.4 90 0.6 NNW 11 13 6 7 1024.9 1024.9 0.0
30/08:30am 3.4 -0.3 2.5 94 0.4 N 11 13 6 7 1024.9 1024.9 0.0
30/08:00am 2.0 -1.5 1.1 94 0.3 NNW 9 13 5 7 1024.6 1024.6 0.0
30/07:30am 1.4 -1.6 0.5 94 0.3 W 6 9 3 5 1024.3 1024.3 0.0
30/07:00am 1.3 -1.9 0.6 95 0.3 NW 7 9 4 5 1023.9 1023.9 0.0
30/06:30am 1.5 -3.2 0.8 95 0.3 N 15 15 8 8 1023.5 1023.5 0.0
30/06:00am 0.9 -2.8 0.2 95 0.3 NNW 9 11 5 6 1023.0 1023.0 0.0
30/05:30am 1.3 -0.6 0.6 95 0.3 CALM 0 0 0 0 1022.7 1022.7 0.0
30/05:00am 1.1 -0.9 -0.1 92 0.4 CALM 0 0 0 0 1022.2 1022.2 0.0
30/04:30am 2.6 0.9 1.9 95 0.3 CALM 0 0 0 0 1022.2 1022.2 0.0
30/04:00am 2.2 -1.3 1.5 95 0.3 NNW 9 11 5 6 1021.9 1021.9 0.0
30/03:30am 2.2 0.4 1.3 94 0.3 CALM 0 6 0 3 1022.0 1022.0 0.0
30/03:00am 2.9 -0.5 1.7 92 0.5 SW 9 13 5 7 1022.0 1022.0 0.0
30/02:30am 2.2 -2.1 1.3 94 0.3 SW 13 15 7 8 1021.9 1021.9 0.0
30/02:00am 4.3 1.4 2.8 90 0.6 NNW 7 13 4 7 1021.8 1021.8 0.0
30/01:30am 5.1 2.3 3.0 86 0.9 N 7 11 4 6 1021.5 1021.5 0.0
30/01:00am 6.0 3.2 3.2 82 1.2 N 7 11 4 6 1021.5 1021.5 0.0
30/12:30am 7.0 3.2 4.0 81 1.3 N 13 17 7 9 1021.4 1021.4 0.0
30/12:00am 6.8 3.7 3.6 80 1.3 N 9 11 5 6 1021.5 1021.5 0.0
 
Date/Time
EST
Temp
°C
App
Temp
°C
Dew
Point
°C
Rel
Hum
%
Delta-T
°C
Wind Press
QNH
hPa
Press
MSL
hPa
Rain since
9am
mm
Dir  Spd
km/h
Gust
km/h
Spd
kts
Gust
kts
29/11:30pm 7.1 3.3 4.1 81 1.3 NNE 13 19 7 10 1021.5 1021.5 0.0
29/11:00pm 7.5 2.9 3.7 77 1.6 NNE 17 20 9 11 1021.2 1021.2 0.0
29/10:30pm 7.4 3.6 4.0 79 1.5 NNE 13 17 7 9 1021.2 1021.2 0.0
29/10:00pm 6.6 3.2 3.8 82 1.2 N 11 13 6 7 1021.3 1021.3 0.0
29/09:30pm 7.2 3.8 3.8 79 1.5 N 11 15 6 8 1021.3 1021.3 0.0
29/09:00pm 7.5 4.8 3.6 76 1.7 NNE 7 11 4 6 1021.3 1021.3 0.0
29/08:30pm 7.6 4.5 3.6 76 1.7 NNE 9 13 5 7 1021.3 1021.3 0.0
29/08:00pm 7.8 4.4 4.0 77 1.6 NNE 11 15 6 8 1020.9 1020.9 0.0
29/07:30pm 8.0 4.3 4.2 77 1.7 NNE 13 15 7 8 1020.7 1020.7 0.0
29/07:00pm 8.6 3.7 4.2 74 1.9 NNE 19 26 10 14 1020.5 1020.5 0.0
29/06:30pm 8.7 3.6 4.3 74 1.9 NNE 20 26 11 14 1020.2 1020.2 0.0
29/06:00pm 9.2 4.2 4.4 72 2.1 NNE 20 24 11 13 1020.2 1020.2 0.0
29/05:30pm 9.4 5.2 4.0 69 2.4 NNE 15 20 8 11 1020.3 1020.3 0.0
29/05:00pm 9.9 6.1 3.9 66 2.6 NNE 13 15 7 8 1020.4 1020.4 0.0
29/04:30pm 10.4 7.0 4.1 65 2.8 NNE 11 17 6 9 1020.5 1020.5 0.0
29/04:00pm 11.1 6.5 3.9 61 3.2 NNE 17 22 9 12 1020.4 1020.4 0.0
29/03:30pm 11.5 7.8 4.5 62 3.2 NNE 13 15 7 8 1020.5 1020.5 0.0
29/03:00pm 11.7 7.5 4.0 59 3.4 NNE 15 19 8 10 1020.9 1020.9 0.0
29/02:30pm 11.9 7.4 4.4 60 3.4 NNE 17 20 9 11 1021.0 1021.0 0.0
29/02:00pm 11.6 7.1 4.3 61 3.3 NNE 17 20 9 11 1021.0 1021.0 0.0
29/01:30pm 11.5 6.6 4.0 60 3.3 NNE 19 24 10 13 1021.2 1021.2 0.0
29/01:00pm 11.3 6.9 4.5 63 3.1 N 17 22 9 12 1021.7 1021.7 0.0
29/12:30pm 11.0 6.6 4.7 65 2.8 NNE 17 24 9 13 1022.2 1022.2 0.0
29/12:00pm 11.0 6.0 4.5 64 2.9 NNE 20 30 11 16 1022.7 1022.7 0.0
29/11:30am 10.8 6.0 4.7 66 2.8 NNE 19 24 10 13 1023.2 1023.2 0.0
29/11:00am 10.4 6.5 5.4 71 2.3 NNE 15 20 8 11 1023.4 1023.4 0.0
29/10:30am 8.9 5.4 5.6 80 1.5 N 13 15 7 8 1024.0 1024.0 0.0
29/10:00am 7.1 3.4 4.4 83 1.2 N 13 17 7 9 1024.2 1024.2 0.0
29/09:30am 6.4 3.5 4.6 88 0.8 NE 9 15 5 8 1024.3 1024.3 0.0
29/09:00am 5.1 2.5 4.2 94 0.4 NE 7 13 4 7 1024.3 1024.3 0.0
29/08:30am 1.8 -1.7 1.1 95 0.3 NNW 9 11 5 6 1024.4 1024.4 0.0
29/08:00am 1.4 -1.8 0.8 96 0.2 N 7 11 4 6 1024.3 1024.3 0.0
29/07:30am 1.7 -1.4 1.3 97 0.2 N 7 9 4 5 1024.3 1024.3 0.0
29/07:00am 1.0 -3.0 0.4 96 0.2 WNW 11 13 6 7 1024.4 1024.4 0.0
29/06:30am 1.5 -1.7 0.6 94 0.3 WNW 7 11 4 6 1024.2 1024.2 0.0
29/06:00am 2.9 -0.6 1.1 88 0.7 NNW 9 13 5 7 1023.9 1023.9 0.0
29/05:30am 3.9 -0.2 2.4 90 0.6 NE 13 13 7 7 1023.6 1023.6 0.0
29/05:00am 4.0 0.4 3.0 93 0.4 NE 11 11 6 6 1023.7 1023.7 0.0
29/04:30am 5.1 1.3 3.9 92 0.5 ENE 13 15 7 8 1023.6 1023.6 0.0
29/04:00am 4.7 0.4 3.4 91 0.5 ENE 15 19 8 10 1023.9 1023.9 0.0
29/03:30am 3.7 0.1 2.7 93 0.4 NE 11 13 6 7 1024.3 1024.3 0.0
29/03:00am 3.6 0.4 2.9 95 0.3 ENE 9 13 5 7 1024.6 1024.6 0.0
29/02:30am 3.4 1.9 3.0 97 0.2 CALM 0 0 0 0 1024.9 1024.9 0.0
29/02:00am 3.9 1.2 2.6 91 0.5 NE 6 9 3 5 1024.7 1024.7 0.0
29/01:30am 4.5 0.5 3.0 90 0.6 NNE 13 17 7 9 1024.6 1024.6 0.0
29/01:00am 3.9 -0.2 2.4 90 0.6 NE 13 15 7 8 1025.0 1025.0 0.0
29/12:30am 4.1 -0.4 2.1 87 0.8 NNE 15 19 8 10 1025.5 1025.5 0.0
29/12:00am 3.7 0.4 2.4 91 0.5 NNE 9 13 5 7 1026.1 1026.1 0.0
 
Date/Time
EST
Temp
°C
App
Temp
°C
Dew
Point
°C
Rel
Hum
%
Delta-T
°C
Wind Press
QNH
hPa
Press
MSL
hPa
Rain since
9am
mm
Dir  Spd
km/h
Gust
km/h
Spd
kts
Gust
kts
28/11:30pm 3.9 1.0 2.7 92 0.5 NNE 7 9 4 5 1026.3 1026.3 0.0
28/11:00pm 3.8 0.9 2.5 91 0.5 NNE 7 9 4 5 1026.4 1026.4 0.0
28/10:30pm 3.7 1.7 2.1 89 0.6 NNW 2 7 1 4 1026.7 1026.7 0.0
28/10:00pm 5.1 1.9 3.3 88 0.7 NNW 9 11 5 6 1026.8 1026.8 0.0
28/09:30pm 6.1 2.6 3.3 82 1.2 NW 11 15 6 8 1027.0 1027.0 0.0
28/09:00pm 6.0 3.0 4.0 87 0.8 NNE 9 15 5 8 1026.9 1026.9 0.0
28/08:30pm 6.1 4.4 3.9 86 0.9 N 2 7 1 4 1027.0 1027.0 0.0
28/08:00pm 7.3 4.8 4.8 84 1.1 N 7 9 4 5 1027.2 1027.2 0.0
28/07:30pm 6.8 5.6 4.5 85 1.0 CALM 0 6 0 3 1027.2 1027.2 0.0
28/07:00pm 8.6 6.4 5.2 79 1.5 N 6 7 3 4 1027.2 1027.2 0.0
28/06:30pm 8.7 5.8 4.7 76 1.8 NW 9 11 5 6 1026.9 1026.9 0.0
28/06:00pm 8.7 6.6 5.8 82 1.3 W 6 9 3 5 1026.7 1026.7 0.0
28/05:30pm 10.2 9.1 6.7 79 1.6 NW 2 7 1 4 1026.5 1026.5 0.0
28/05:00pm 11.8 9.3 6.5 70 2.5 ENE 9 11 5 6 1026.4 1026.4 0.0
28/04:30pm 13.5 11.1 7.1 65 3.1 NNE 9 11 5 6 1026.4 1026.4 0.0
28/04:00pm 14.4 12.4 7.0 61 3.6 N 7 9 4 5 1026.7 1026.7 0.0
28/03:30pm 14.5 12.5 7.1 61 3.6 N 7 11 4 6 1027.0 1027.0 0.0
28/03:00pm 14.5 11.6 6.3 58 3.9 N 11 19 6 10 1027.4 1027.4 0.0
28/02:30pm 14.0 10.4 6.6 61 3.6 NNE 15 19 8 10 1027.4 1027.4 0.0
28/02:00pm 12.3 8.3 6.6 68 2.7 N 17 20 9 11 1028.0 1028.0 0.0
28/01:30pm 12.2 8.1 6.3 67 2.8 N 17 24 9 13 1028.6 1028.6 0.0
28/01:00pm 12.1 7.7 6.4 68 2.7 N 19 26 10 14 1029.2 1029.2 0.0
28/12:30pm 11.4 7.1 6.9 74 2.1 NNE 19 24 10 13 1029.5 1029.5 0.0
28/12:00pm 10.4 7.3 7.1 80 1.6 N 13 17 7 9 1030.2 1030.2 0.0
28/11:30am 9.8 6.6 6.7 81 1.5 NNE 13 17 7 9 1030.6 1030.6 0.0
28/11:00am 8.5 6.6 6.6 88 0.9 E 6 7 3 4 1031.2 1031.2 0.0
28/10:30am 7.6 5.4 6.2 91 0.6 E 7 7 4 4 1031.6 1031.6 0.0
28/10:00am 7.1 5.4 5.9 92 0.5 NE 4 7 2 4 1031.4 1031.4 0.0
28/09:30am 6.5 5.6 6.1 97 0.2 CALM 0 0 0 0 1031.6 1031.6 0.0
28/09:00am 5.1 2.8 4.8 98 0.1 W 6 7 3 4 1031.7 1031.7 0.0
28/08:30am 3.5 1.6 3.1 97 0.2 NW 2 7 1 4 1031.8 1031.8 0.0
28/08:00am 2.8 1.2 2.4 97 0.2 CALM 0 0 0 0 1031.9 1031.9 0.0
28/07:30am 2.7 1.1 2.3 97 0.2 CALM 0 0 0 0 1031.6 1031.6 0.0
28/07:00am 2.4 0.7 2.0 97 0.2 CALM 0 0 0 0 1031.4 1031.4 0.0
28/06:30am 2.8 0.8 2.4 97 0.2 E 2 6 1 3 1031.3 1031.3 0.0
28/06:00am 2.4 -0.6 2.0 97 0.2 NE 7 9 4 5 1031.0 1031.0 0.0
28/05:30am 2.9 1.3 2.5 97 0.2 CALM 0 0 0 0 1031.1 1031.1 0.0
28/05:00am 3.0 1.0 2.4 96 0.2 SE 2 6 1 3 1031.2 1031.2 0.0
28/04:30am 3.3 0.6 2.7 96 0.2 N 6 7 3 4 1031.2 1031.2 0.0
28/04:00am 4.2 1.5 3.8 97 0.2 NNW 7 9 4 5 1031.2 1031.2 0.0
28/03:30am 3.5 0.8 2.8 95 0.3 NW 6 7 3 4 1031.4 1031.4 0.0
28/03:00am 4.1 0.6 3.4 95 0.3 N 11 13 6 7 1031.7 1031.7 0.0
28/02:30am 4.1 1.3 3.4 95 0.3 NNW 7 11 4 6 1031.9 1031.9 0.0
28/02:00am 4.6 1.5 3.7 94 0.4 NW 9 11 5 6 1031.9 1031.9 0.0
28/01:30am 4.4 1.2 3.2 92 0.5 NW 9 11 5 6 1032.2 1032.2 0.0
28/01:00am 5.5 2.9 4.3 92 0.5 WNW 7 9 4 5 1032.1 1032.1 0.0
28/12:30am 6.1 2.9 4.9 92 0.5 NNW 11 13 6 7 1032.3 1032.3 0.0
28/12:00am 6.5 3.7 5.1 91 0.6 NW 9 11 5 6 1032.4 1032.4 0.0
 
Date/Time
EST
Temp
°C
App
Temp
°C
Dew
Point
°C
Rel
Hum
%
Delta-T
°C
Wind Press
QNH
hPa
Press
MSL
hPa
Rain since
9am
mm
Dir  Spd
km/h
Gust
km/h
Spd
kts
Gust
kts
27/11:30pm 6.3 3.4 4.9 91 0.6 NW 9 13 5 7 1032.5 1032.5 0.0
27/11:00pm 6.9 3.7 5.2 89 0.7 NW 11 13 6 7 1032.7 1032.7 0.0
27/10:30pm 7.5 4.4 5.5 87 0.9 NW 11 15 6 8 1032.7 1032.7 0.0
27/10:00pm 7.6 4.5 5.4 86 1.0 NW 11 13 6 7 1032.8 1032.9 0.0
27/09:30pm 8.5 5.1 6.1 85 1.1 WNW 13 15 7 8 1032.9 1033.0 0.0
27/09:00pm 9.1 5.9 6.7 85 1.1 WNW 13 17 7 9 1033.0 1033.1 0.0

Latest Capital City Observations: Canberra | Sydney | Melbourne | Brisbane | Adelaide | Perth | Hobart | Darwin

Other formats

Comma delimited format used in spreadsheet applications
http://www.bom.gov.au/fwo/IDV60901/IDV60901.94854.axf

JavaScript Object Notation format (JSON) in row-major order
http://www.bom.gov.au/fwo/IDV60901/IDV60901.94854.json

Data quality

Most of these data are generated automatically and are frequently updated. Quality checks on data are not normally performed. It is possible for incorrect values to appear. Refer to information at About Latest Weather Observations and please check the disclaimer before using these data.